Time;durP1;ratioP1;P1;durP2;ratioP2;P2;SDS_P1;SDS_P2;PMS_P1;PMS_P2;Temp;Humidity;BMP_temperature;BMP_pressure;BME280_temperature;BME280_humidity;BME280_pressure;Samples;Min_cycle;Max_cycle;Signal;HPM_P1;HPM_P2
2022/04/15 00:00:41;;;;;;;48.00;32.55;;;11.80;99.90;;;;;;5054011;28;20465;-77
2022/04/15 00:03:08;;;;;;;59.67;37.38;;;11.80;99.90;;;;;;5053899;28;20416;-78
2022/04/15 00:05:36;;;;;;;50.88;36.47;;;12.00;99.90;;;;;;5053530;28;20021;-77
2022/04/15 00:08:09;;;;;;;53.42;35.13;;;12.00;99.90;;;;;;5053589;28;20040;-78
2022/04/15 00:10:35;;;;;;;48.25;33.80;;;12.00;99.90;;;;;;5053748;28;20104;-78
2022/04/15 00:13:02;;;;;;;52.85;34.75;;;11.70;99.90;;;;;;5053630;28;20481;-79
2022/04/15 00:15:27;;;;;;;45.97;33.38;;;11.40;99.90;;;;;;5053805;28;20389;-78
2022/04/15 00:17:54;;;;;;;50.20;34.67;;;11.40;99.90;;;;;;5054073;28;20021;-78
2022/04/15 00:20:20;;;;;;;50.83;34.95;;;11.50;99.90;;;;;;5053746;28;20487;-78
2022/04/15 00:22:46;;;;;;;52.65;35.25;;;11.70;99.90;;;;;;5053212;28;20021;-76
2022/04/15 00:25:13;;;;;;;50.88;35.17;;;11.90;99.90;;;;;;5053388;28;20509;-78
2022/04/15 00:27:40;;;;;;;52.20;35.38;;;11.80;99.90;;;;;;5053488;28;20049;-77
2022/04/15 00:30:10;;;;;;;50.17;34.50;;;11.60;99.90;;;;;;5035792;28;20025;-78
2022/04/15 00:32:36;;;;;;;48.65;35.10;;;11.70;99.90;;;;;;5035484;28;20033;-77
2022/04/15 00:35:02;;;;;;;51.67;34.80;;;11.70;99.90;;;;;;5053347;28;20120;-79
2022/04/15 00:37:28;;;;;;;46.70;32.85;;;11.50;99.90;;;;;;5053037;28;20497;-80
2022/04/15 00:39:54;;;;;;;53.08;34.70;;;11.60;99.90;;;;;;5053301;28;20047;-80
2022/04/15 00:42:23;;;;;;;53.47;34.97;;;11.80;99.90;;;;;;5035618;28;20032;-80
2022/04/15 00:44:59;;;;;;;53.95;33.50;;;11.80;99.90;;;;;;5053163;28;20382;-79
2022/04/15 00:47:37;;;;;;;49.00;32.92;;;11.80;99.90;;;;;;5052948;28;20485;-80
2022/04/15 00:50:04;;;;;;;51.20;33.63;;;11.60;99.90;;;;;;5053262;28;20029;-80
2022/04/15 00:52:34;;;;;;;50.45;33.03;;;11.30;99.90;;;;;;5052261;28;20021;-75
2022/04/15 00:55:03;;;;;;;49.53;33.60;;;11.20;99.90;;;;;;5053121;28;20037;-79
2022/04/15 00:57:33;;;;;;;49.42;34.83;;;11.40;99.90;;;;;;5052936;28;20021;-80
2022/04/15 01:00:01;;;;;;;53.20;34.60;;;11.50;99.90;;;;;;5053041;28;20036;-77
2022/04/15 01:02:28;;;;;;;55.03;35.55;;;11.70;99.90;;;;;;5052823;28;20017;-77
2022/04/15 01:04:56;;;;;;;51.45;34.00;;;11.70;99.90;;;;;;5035122;28;20036;-77
2022/04/15 01:07:29;;;;;;;48.58;32.03;;;11.70;99.90;;;;;;5052889;28;20102;-77
2022/04/15 01:09:55;;;;;;;50.00;32.85;;;11.40;99.90;;;;;;5052937;28;20103;-79
2022/04/15 01:12:22;;;;;;;50.33;32.30;;;11.30;99.90;;;;;;5052942;28;20434;-77
2022/04/15 01:14:50;;;;;;;47.55;30.48;;;11.20;99.90;;;;;;5052681;28;20057;-76
2022/04/15 01:17:19;;;;;;;42.03;29.65;;;11.20;99.90;;;;;;5046681;28;20041;-77
2022/04/15 01:19:44;;;;;;;47.70;30.73;;;11.20;99.90;;;;;;5051895;28;20458;-80
2022/04/15 01:22:15;;;;;;;47.92;32.08;;;11.30;99.90;;;;;;5034525;28;20021;-78
2022/04/15 01:24:41;;;;;;;45.22;30.15;;;11.20;99.90;;;;;;5052733;28;20445;-76
2022/04/15 01:27:07;;;;;;;46.40;31.05;;;10.90;99.90;;;;;;5052650;28;20113;-78
2022/04/15 01:29:37;;;;;;;42.10;29.92;;;10.90;99.90;;;;;;5052784;28;20465;-76
2022/04/15 01:32:07;;;;;;;48.55;31.95;;;10.60;99.90;;;;;;5052557;28;20063;-78
2022/04/15 01:34:34;;;;;;;45.78;31.40;;;10.30;99.90;;;;;;5052140;28;20473;-79
2022/04/15 01:37:00;;;;;;;48.80;31.95;;;10.00;99.90;;;;;;5052652;28;20033;-78
2022/04/15 01:39:34;;;;;;;51.85;31.30;;;10.10;99.90;;;;;;5052843;28;20067;-76
2022/04/15 01:41:59;;;;;;;46.88;31.08;;;10.30;99.90;;;;;;5034529;28;20044;-79
2022/04/15 01:44:25;;;;;;;46.50;31.85;;;10.60;99.90;;;;;;5051270;28;20017;-80
2022/04/15 01:46:51;;;;;;;49.80;32.88;;;10.70;99.90;;;;;;5052172;28;20037;-79
2022/04/15 01:49:16;;;;;;;46.13;31.25;;;10.60;99.90;;;;;;5052430;28;20112;-77
2022/04/15 01:51:42;;;;;;;46.63;32.00;;;10.70;99.90;;;;;;5052307;28;20079;-79
2022/04/15 01:54:08;;;;;;;48.13;32.00;;;10.80;99.90;;;;;;5052525;28;20061;-80
2022/04/15 01:56:33;;;;;;;52.50;31.00;;;10.50;99.90;;;;;;5052285;28;20032;-79
2022/04/15 01:58:59;;;;;;;49.00;32.78;;;10.60;99.90;;;;;;5052511;28;20469;-80
2022/04/15 02:01:25;;;;;;;45.00;32.83;;;10.60;99.90;;;;;;5052274;28;20056;-80
2022/04/15 02:03:50;;;;;;;47.28;33.88;;;10.90;99.90;;;;;;5051890;28;20079;-80
2022/04/15 02:06:16;;;;;;;46.72;32.72;;;10.80;99.90;;;;;;5055239;28;20079;-78
2022/04/15 02:08:42;;;;;;;43.58;31.38;;;10.40;99.90;;;;;;5055903;28;20033;-79
2022/04/15 02:11:08;;;;;;;49.78;31.83;;;10.20;99.90;;;;;;5056237;28;20385;-79
2022/04/15 02:13:33;;;;;;;47.35;31.23;;;10.40;99.90;;;;;;5038176;28;20107;-76
2022/04/15 02:15:59;;;;;;;45.00;30.02;;;10.30;99.90;;;;;;5055988;28;20053;-76
2022/04/15 02:18:26;;;;;;;48.83;32.70;;;10.50;99.90;;;;;;5056058;28;20032;-79
2022/04/15 02:20:54;;;;;;;47.97;31.83;;;10.50;99.90;;;;;;5055893;28;20044;-79
2022/04/15 02:23:20;;;;;;;52.15;34.60;;;10.70;99.90;;;;;;5055949;28;20017;-80
2022/04/15 02:25:46;;;;;;;50.00;32.13;;;10.90;99.90;;;;;;5055964;28;20114;-80
2022/04/15 02:28:11;;;;;;;45.90;31.10;;;10.80;99.90;;;;;;5037888;28;20044;-80
2022/04/15 02:30:37;;;;;;;45.05;28.58;;;10.70;99.90;;;;;;5055790;28;20025;-80
2022/04/15 02:33:03;;;;;;;53.10;33.55;;;10.50;99.90;;;;;;5055322;28;20033;-74
2022/04/15 02:35:28;;;;;;;49.88;31.67;;;10.70;99.90;;;;;;5037712;28;20029;-79
2022/04/15 02:37:54;;;;;;;50.58;31.58;;;10.70;99.90;;;;;;5055492;28;20029;-78
2022/04/15 02:40:20;;;;;;;49.75;33.13;;;10.20;99.90;;;;;;5055759;28;20025;-79
2022/04/15 02:42:46;;;;;;;52.25;33.40;;;10.20;99.90;;;;;;5055397;28;20529;-78
2022/04/15 02:45:11;;;;;;;48.90;33.05;;;10.20;99.90;;;;;;5055450;28;20028;-74
2022/04/15 02:47:38;;;;;;;49.47;33.72;;;10.20;99.90;;;;;;5054663;28;20398;-78
2022/04/15 02:50:04;;;;;;;51.88;33.83;;;10.30;99.90;;;;;;5055499;28;20036;-80
2022/04/15 02:52:32;;;;;;;51.20;33.42;;;10.00;99.90;;;;;;5055440;28;20032;-79
2022/04/15 02:54:58;;;;;;;50.35;32.78;;;10.20;99.90;;;;;;5055202;28;20032;-77
2022/04/15 02:57:23;;;;;;;47.03;32.60;;;10.00;99.90;;;;;;5055300;28;20025;-78
2022/04/15 02:59:49;;;;;;;47.28;33.30;;;9.70;99.90;;;;;;5054989;28;20104;-78
2022/04/15 03:02:15;;;;;;;51.78;33.22;;;9.70;99.90;;;;;;5054817;28;20033;-76
2022/04/15 03:04:41;;;;;;;55.15;35.10;;;9.80;99.90;;;;;;5054909;28;20086;-77
2022/04/15 03:07:07;;;;;;;50.35;32.08;;;9.80;99.90;;;;;;5055046;28;20033;-76
2022/04/15 03:09:33;;;;;;;56.63;34.08;;;9.70;99.90;;;;;;5055049;28;20417;-77
2022/04/15 03:11:58;;;;;;;51.08;34.65;;;9.60;99.90;;;;;;5055024;28;20025;-76
2022/04/15 03:14:24;;;;;;;53.97;34.95;;;9.50;99.90;;;;;;5036896;28;20079;-76
2022/04/15 03:16:50;;;;;;;47.95;33.60;;;9.50;99.90;;;;;;5054214;28;20021;-78
2022/04/15 03:19:16;;;;;;;49.90;32.72;;;9.80;99.90;;;;;;5054907;28;20029;-77
2022/04/15 03:21:42;;;;;;;48.15;32.17;;;9.80;99.90;;;;;;5054872;28;20104;-75
2022/04/15 03:24:08;;;;;;;54.72;30.98;;;10.00;99.90;;;;;;5054548;28;20021;-78
2022/04/15 03:26:33;;;;;;;51.33;31.23;;;10.10;99.90;;;;;;5036862;28;20036;-79
2022/04/15 03:28:59;;;;;;;50.05;32.70;;;10.00;99.90;;;;;;5054950;28;20029;-77
2022/04/15 03:31:25;;;;;;;48.70;31.38;;;10.10;99.90;;;;;;5054451;28;20078;-79
2022/04/15 03:33:50;;;;;;;54.90;33.88;;;10.10;99.90;;;;;;5036746;28;20045;-79
2022/04/15 03:36:16;;;;;;;51.05;32.25;;;10.20;99.90;;;;;;5054627;28;20021;-79
2022/04/15 03:38:42;;;;;;;48.40;33.08;;;10.30;99.90;;;;;;5054428;28;20033;-79
2022/04/15 03:41:08;;;;;;;53.80;31.55;;;10.00;99.90;;;;;;5036712;28;20699;-77
2022/04/15 03:43:34;;;;;;;47.17;30.13;;;9.60;99.90;;;;;;5054486;28;20029;-79
2022/04/15 03:46:00;;;;;;;52.63;32.30;;;9.80;99.90;;;;;;5053867;28;20025;-79
2022/04/15 03:48:26;;;;;;;46.72;30.20;;;9.70;99.90;;;;;;5054327;28;20116;-79
2022/04/15 03:50:53;;;;;;;46.72;31.10;;;9.70;99.90;;;;;;5054006;28;20428;-79
2022/04/15 03:53:20;;;;;;;43.95;31.75;;;9.50;99.90;;;;;;5036575;28;20040;-80
2022/04/15 03:55:45;;;;;;;48.80;31.23;;;9.70;99.90;;;;;;5054005;28;20021;-79
2022/04/15 03:58:13;;;;;;;50.85;31.50;;;9.90;99.90;;;;;;5054163;28;20041;-77
2022/04/15 04:00:39;;;;;;;51.03;31.73;;;9.90;99.90;;;;;;5053701;28;20029;-80
2022/04/15 04:03:05;;;;;;;48.80;32.90;;;10.10;99.90;;;;;;5053827;28;20503;-76
2022/04/15 04:05:30;;;;;;;48.63;31.13;;;10.20;99.90;;;;;;5053702;28;20040;-79
2022/04/15 04:07:56;;;;;;;46.53;31.50;;;10.20;99.90;;;;;;5053771;28;20087;-79
2022/04/15 04:10:22;;;;;;;46.45;30.42;;;10.00;99.90;;;;;;5053800;28;20032;-79
2022/04/15 04:12:48;;;;;;;46.47;29.13;;;9.90;99.90;;;;;;5053876;28;20119;-77
2022/04/15 04:15:14;;;;;;;44.75;30.00;;;9.70;99.90;;;;;;5035487;28;20023;-78
2022/04/15 04:17:41;;;;;;;51.45;30.60;;;9.30;99.90;;;;;;5053879;28;20355;-73
2022/04/15 04:20:09;;;;;;;48.25;29.73;;;9.10;99.90;;;;;;5053514;28;20378;-78
2022/04/15 04:22:36;;;;;;;47.05;28.52;;;9.30;99.90;;;;;;5035711;28;20067;-78
2022/04/15 04:25:03;;;;;;;46.65;28.58;;;9.60;99.90;;;;;;5035502;28;20029;-78
2022/04/15 04:27:28;;;;;;;45.67;27.88;;;9.70;99.90;;;;;;5052746;28;20048;-78
2022/04/15 04:29:54;;;;;;;43.75;29.10;;;9.60;99.90;;;;;;5053251;28;20075;-77
2022/04/15 04:32:20;;;;;;;43.47;28.75;;;9.50;99.90;;;;;;5035671;28;20029;-78
2022/04/15 04:34:46;;;;;;;37.70;26.75;;;9.50;99.90;;;;;;5053567;28;20103;-78
2022/04/15 04:37:13;;;;;;;38.80;26.33;;;9.40;99.90;;;;;;5053337;28;20474;-79
2022/04/15 04:39:38;;;;;;;41.30;27.13;;;9.40;99.90;;;;;;5053293;28;20075;-75
2022/04/15 04:42:06;;;;;;;47.63;27.38;;;9.40;99.90;;;;;;5053114;28;20057;-77
2022/04/15 04:44:32;;;;;;;40.97;25.42;;;9.40;99.90;;;;;;5035302;28;20060;-77
2022/04/15 04:46:59;;;;;;;37.40;25.45;;;9.30;99.90;;;;;;5052774;28;20032;-73
2022/04/15 04:49:25;;;;;;;43.13;26.35;;;9.20;99.90;;;;;;5053196;28;20024;-77
2022/04/15 04:51:51;;;;;;;37.03;25.17;;;9.30;99.90;;;;;;5053068;28;20216;-75
2022/04/15 04:54:17;;;;;;;42.08;25.48;;;8.90;99.90;;;;;;5053072;28;20489;-77
2022/04/15 04:56:44;;;;;;;40.42;26.48;;;8.90;99.90;;;;;;5053075;28;20062;-76
2022/04/15 04:59:10;;;;;;;43.40;26.70;;;8.90;99.90;;;;;;5052764;28;20103;-76
2022/04/15 05:01:35;;;;;;;39.03;24.20;;;8.80;99.90;;;;;;5052952;28;20044;-74
2022/04/15 05:04:01;;;;;;;42.72;25.55;;;8.80;99.90;;;;;;5034965;28;20037;-78
2022/04/15 05:06:27;;;;;;;37.17;25.35;;;9.10;99.90;;;;;;5052689;28;20033;-77
2022/04/15 05:08:52;;;;;;;38.13;26.10;;;9.20;99.90;;;;;;5052989;28;20036;-78
2022/04/15 05:11:18;;;;;;;37.92;22.77;;;9.10;99.90;;;;;;5034960;28;20074;-75
2022/04/15 05:13:44;;;;;;;38.40;25.40;;;9.20;99.90;;;;;;5052501;28;20036;-75
2022/04/15 05:16:10;;;;;;;37.90;25.40;;;9.40;99.90;;;;;;5034995;28;20147;-77
2022/04/15 05:18:35;;;;;;;42.63;24.33;;;9.40;99.90;;;;;;5052954;28;20052;-77
2022/04/15 05:21:01;;;;;;;35.00;24.60;;;9.30;99.90;;;;;;5034828;28;20425;-77
2022/04/15 05:23:27;;;;;;;41.22;25.73;;;9.40;99.90;;;;;;5052897;28;20025;-77
2022/04/15 05:25:53;;;;;;;42.22;25.15;;;9.50;99.90;;;;;;5034732;28;20491;-78
2022/04/15 05:28:19;;;;;;;43.00;25.52;;;9.40;99.90;;;;;;5052352;28;20069;-78
2022/04/15 05:30:44;;;;;;;36.20;26.55;;;9.50;99.90;;;;;;5052753;28;20136;-77
2022/04/15 05:33:10;;;;;;;46.60;27.88;;;9.70;99.90;;;;;;5052588;28;20029;-78
2022/04/15 05:35:36;;;;;;;38.78;25.50;;;9.50;99.90;;;;;;5052753;28;20040;-73
2022/04/15 05:38:02;;;;;;;42.25;26.17;;;9.40;99.90;;;;;;5052318;28;20370;-75
2022/04/15 05:40:28;;;;;;;39.92;25.38;;;9.40;99.90;;;;;;5038101;28;20036;-76
2022/04/15 05:42:54;;;;;;;48.80;27.05;;;9.50;99.90;;;;;;5056495;28;20060;-76
2022/04/15 05:45:20;;;;;;;43.63;27.15;;;9.60;99.90;;;;;;5056701;28;20029;-77
2022/04/15 05:47:46;;;;;;;42.67;26.63;;;9.60;99.90;;;;;;5056285;28;20040;-78
2022/04/15 05:50:12;;;;;;;47.97;27.85;;;9.60;99.90;;;;;;5056268;28;20044;-76
2022/04/15 05:52:37;;;;;;;49.05;27.33;;;9.80;99.90;;;;;;5056397;28;20523;-77
2022/04/15 05:55:04;;;;;;;41.28;27.00;;;10.00;99.90;;;;;;5056148;28;20036;-77
2022/04/15 05:57:29;;;;;;;53.97;30.40;;;9.90;99.90;;;;;;5056373;28;20024;-77
2022/04/15 05:59:55;;;;;;;48.42;27.55;;;10.00;99.90;;;;;;5038296;28;20087;-78
2022/04/15 06:02:21;;;;;;;42.13;26.55;;;9.90;99.90;;;;;;5038091;28;20013;-76
2022/04/15 06:04:48;;;;;;;55.08;30.10;;;10.10;99.90;;;;;;5056173;28;20064;-78
2022/04/15 06:07:13;;;;;;;46.25;30.27;;;10.20;99.90;;;;;;5037968;28;20486;-78
2022/04/15 06:09:39;;;;;;;61.15;34.92;;;10.20;99.90;;;;;;5055854;28;20052;-77
2022/04/15 06:12:05;;;;;;;60.22;36.03;;;10.30;99.90;;;;;;5055912;28;20477;-77
2022/04/15 06:14:33;;;;;;;62.65;37.92;;;10.40;99.90;;;;;;5056196;28;20105;-74
2022/04/15 06:16:59;;;;;;;74.22;42.47;;;10.60;99.90;;;;;;5056192;28;20021;-78
2022/04/15 06:19:25;;;;;;;69.43;42.10;;;10.70;99.90;;;;;;5056075;28;20559;-77
2022/04/15 06:21:51;;;;;;;67.53;40.63;;;10.80;99.90;;;;;;5055811;28;20025;-78
2022/04/15 06:24:18;;;;;;;68.05;43.38;;;10.80;99.90;;;;;;5037715;28;20040;-78
2022/04/15 06:26:43;;;;;;;77.47;44.63;;;11.00;99.90;;;;;;5055921;28;20040;-79
2022/04/15 06:29:09;;;;;;;78.10;46.17;;;11.10;99.90;;;;;;5055595;28;20033;-77
2022/04/15 06:31:35;;;;;;;86.53;47.92;;;11.30;99.90;;;;;;5055578;28;20060;-78
2022/04/15 06:34:00;;;;;;;84.75;49.75;;;11.30;99.90;;;;;;5055658;28;20025;-78
2022/04/15 06:36:26;;;;;;;91.43;51.33;;;11.40;99.90;;;;;;5055657;28;20029;-79
2022/04/15 06:38:52;;;;;;;83.25;50.28;;;11.60;99.90;;;;;;5055333;28;20061;-78
2022/04/15 06:41:17;;;;;;;98.28;51.67;;;11.80;99.90;;;;;;5055505;28;20028;-77
2022/04/15 06:43:43;;;;;;;84.00;49.90;;;11.80;99.90;;;;;;5055473;28;20033;-76
2022/04/15 06:46:09;;;;;;;86.90;51.63;;;12.10;99.90;;;;;;5055297;28;20017;-76
2022/04/15 06:48:34;;;;;;;82.05;51.65;;;12.10;99.90;;;;;;5055129;28;20501;-72
2022/04/15 06:51:02;;;;;;;83.40;49.58;;;12.40;99.90;;;;;;5054513;28;20442;-79
2022/04/15 06:53:28;;;;;;;86.38;52.47;;;12.50;99.90;;;;;;5055023;28;20037;-78
2022/04/15 06:55:54;;;;;;;85.32;50.15;;;12.60;99.90;;;;;;5055171;28;20059;-76
2022/04/15 06:58:20;;;;;;;85.53;49.28;;;12.80;99.90;;;;;;5055077;28;20029;-78
2022/04/15 07:00:46;;;;;;;76.35;48.60;;;12.80;99.90;;;;;;5055224;28;20033;-73
2022/04/15 07:03:13;;;;;;;79.93;47.42;;;12.60;99.90;;;;;;5054886;28;20392;-78
2022/04/15 07:05:40;;;;;;;95.65;47.20;;;12.70;99.90;;;;;;5054664;28;20090;-73
2022/04/15 07:08:08;;;;;;;81.20;46.40;;;12.80;99.90;;;;;;5054658;28;20048;-72
2022/04/15 07:10:35;;;;;;;78.38;45.92;;;12.60;99.90;;;;;;5054957;28;20496;-78
2022/04/15 07:13:01;;;;;;;78.88;43.60;;;12.60;99.90;;;;;;5055008;28;20101;-76
2022/04/15 07:15:28;;;;;;;74.72;42.33;;;12.80;99.90;;;;;;5054952;28;20096;-77
2022/04/15 07:17:53;;;;;;;65.75;42.47;;;12.60;99.90;;;;;;5054847;28;20443;-78
2022/04/15 07:20:19;;;;;;;66.45;42.28;;;12.80;99.90;;;;;;5054415;28;20025;-82
2022/04/15 07:22:45;;;;;;;73.15;43.45;;;13.00;99.90;;;;;;5054673;28;20033;-80
2022/04/15 07:25:10;;;;;;;75.63;43.45;;;13.10;99.90;;;;;;5054606;28;20029;-82
2022/04/15 07:27:36;;;;;;;70.78;40.90;;;13.40;99.90;;;;;;5054620;28;20069;-79
2022/04/15 07:30:02;;;;;;;68.07;40.65;;;13.70;99.90;;;;;;5019904;28;20074;-73
2022/04/15 07:32:29;;;;;;;67.90;39.35;;;13.90;99.90;;;;;;5054635;28;20037;-76
2022/04/15 07:34:54;;;;;;;60.25;35.50;;;14.10;99.90;;;;;;5054373;28;20094;-74
2022/04/15 07:37:20;;;;;;;72.13;37.95;;;13.90;99.90;;;;;;5054088;28;20033;-77
2022/04/15 07:39:46;;;;;;;62.25;36.78;;;13.80;99.90;;;;;;5054554;28;20025;-79
2022/04/15 07:42:12;;;;;;;59.17;34.05;;;13.90;99.90;;;;;;5054213;28;20392;-79
2022/04/15 07:44:39;;;;;;;58.05;33.60;;;13.90;99.90;;;;;;5036356;28;20017;-78
2022/04/15 07:47:06;;;;;;;69.30;38.47;;;13.90;99.90;;;;;;5054065;28;20037;-78
2022/04/15 07:49:33;;;;;;;75.53;43.45;;;13.80;99.90;;;;;;5054313;28;20101;-73
2022/04/15 07:51:58;;;;;;;66.63;36.92;;;13.90;99.90;;;;;;5053914;28;20029;-79
2022/04/15 07:54:24;;;;;;;58.20;38.00;;;13.90;99.90;;;;;;5036159;28;20109;-77
2022/04/15 07:56:50;;;;;;;62.15;38.20;;;13.90;99.90;;;;;;5054025;28;20032;-79
2022/04/15 07:59:15;;;;;;;55.75;30.75;;;14.10;99.90;;;;;;5053971;28;20032;-78
2022/04/15 08:01:41;;;;;;;40.90;27.42;;;14.20;99.90;;;;;;5053833;28;20078;-79
2022/04/15 08:04:07;;;;;;;41.47;26.35;;;14.10;99.90;;;;;;5053774;28;20033;-79
2022/04/15 08:06:32;;;;;;;36.63;26.67;;;14.10;99.90;;;;;;5053366;28;20032;-79
2022/04/15 08:09:00;;;;;;;40.03;25.13;;;14.00;99.90;;;;;;5053943;28;20053;-78
2022/04/15 08:11:27;;;;;;;37.17;24.13;;;14.00;99.90;;;;;;5053707;28;20108;-77
2022/04/15 08:13:55;;;;;;;38.95;27.98;;;13.90;99.90;;;;;;5053832;28;20037;-77
2022/04/15 08:16:23;;;;;;;40.60;29.67;;;13.80;99.90;;;;;;5053496;28;20465;-78
2022/04/15 08:18:49;;;;;;;44.28;29.33;;;13.80;99.90;;;;;;5053704;28;20052;-72
2022/04/15 08:21:17;;;;;;;42.95;29.70;;;14.00;99.90;;;;;;5053243;28;20052;-78
2022/04/15 08:23:43;;;;;;;41.58;29.80;;;13.90;99.90;;;;;;5053621;28;20037;-78
2022/04/15 08:26:13;;;;;;;38.70;28.77;;;13.90;99.90;;;;;;5053370;28;20017;-78
2022/04/15 08:28:39;;;;;;;42.00;30.23;;;14.10;99.90;;;;;;5053571;28;20481;-79
2022/04/15 08:31:06;;;;;;;41.75;29.65;;;14.20;99.90;;;;;;5053448;28;20096;-79
2022/04/15 08:33:32;;;;;;;43.70;30.15;;;14.10;99.90;;;;;;5053464;28;20108;-79
2022/04/15 08:35:57;;;;;;;50.55;30.90;;;14.20;99.90;;;;;;5052937;28;20100;-79
2022/04/15 08:38:23;;;;;;;53.95;32.17;;;14.40;99.90;;;;;;5053291;28;20048;-79
2022/04/15 08:40:54;;;;;;;49.75;31.50;;;14.40;99.90;;;;;;5053160;28;20025;-78
2022/04/15 08:43:20;;;;;;;50.67;31.08;;;14.40;99.90;;;;;;5053114;28;20021;-74
2022/04/15 08:45:47;;;;;;;46.17;30.70;;;14.80;99.90;;;;;;5035390;28;20111;-79
2022/04/15 08:48:13;;;;;;;40.15;28.60;;;14.80;99.90;;;;;;5053114;28;20413;-79
2022/04/15 08:50:39;;;;;;;36.42;26.95;;;14.60;99.90;;;;;;5052723;28;20033;-79
2022/04/15 08:53:05;;;;;;;37.33;26.45;;;14.50;99.90;;;;;;5053157;28;20029;-75
2022/04/15 08:55:31;;;;;;;38.70;25.77;;;14.30;99.90;;;;;;5035234;28;20024;-75
2022/04/15 08:57:57;;;;;;;37.10;26.48;;;14.10;99.90;;;;;;5053106;28;20024;-79
2022/04/15 09:00:24;;;;;;;35.35;26.45;;;14.10;99.90;;;;;;5053148;28;20457;-79
2022/04/15 09:02:51;;;;;;;40.28;25.95;;;14.20;99.90;;;;;;5052801;28;20119;-76
2022/04/15 09:05:23;;;;;;;37.45;26.27;;;14.10;99.90;;;;;;5052478;28;20040;-79
2022/04/15 09:07:49;;;;;;;34.45;23.80;;;14.20;99.90;;;;;;5053185;28;20047;-78
2022/04/15 09:10:18;;;;;;;31.38;22.30;;;14.20;99.90;;;;;;5053575;28;20021;-76
2022/04/15 09:12:46;;;;;;;41.05;24.55;;;14.10;99.90;;;;;;5052965;28;20032;-79
2022/04/15 09:15:13;;;;;;;35.70;24.50;;;13.90;99.90;;;;;;5052547;28;20090;-78
2022/04/15 09:17:54;;;;;;;47.53;25.38;;;14.00;99.90;;;;;;5052752;28;20029;-79
2022/04/15 09:20:21;;;;;;;47.03;26.73;;;14.40;99.90;;;;;;5052614;28;20117;-79
2022/04/15 09:22:53;;;;;;;40.53;24.23;;;14.60;99.90;;;;;;5052846;28;20072;-78
2022/04/15 09:25:24;;;;;;;35.08;21.92;;;14.60;99.90;;;;;;5052915;28;20545;-79
2022/04/15 09:27:57;;;;;;;40.28;24.92;;;14.60;99.90;;;;;;5052485;28;20068;-79
2022/04/15 09:30:36;;;;;;;43.85;24.70;;;15.00;99.90;;;;;;5052682;28;20033;-79
2022/04/15 09:33:03;;;;;;;38.30;23.02;;;15.40;99.90;;;;;;5052382;28;20037;-78
2022/04/15 09:35:29;;;;;;;44.45;25.80;;;15.40;99.90;;;;;;5034408;28;20504;-79
2022/04/15 09:37:59;;;;;;;40.50;23.55;;;15.30;99.90;;;;;;5052606;28;20033;-78
2022/04/15 09:40:26;;;;;;;31.27;20.88;;;15.40;99.90;;;;;;5052608;28;20064;-79
2022/04/15 09:42:56;;;;;;;31.98;20.25;;;15.20;99.90;;;;;;5052429;28;20036;-79
2022/04/15 09:45:30;;;;;;;33.53;19.85;;;15.50;99.90;;;;;;5052660;28;20029;-79
2022/04/15 09:47:59;;;;;;;35.97;20.25;;;15.50;99.90;;;;;;5033926;28;20447;-79
2022/04/15 09:50:34;;;;;;;35.50;20.65;;;15.40;99.90;;;;;;5052424;28;20079;-79
2022/04/15 09:53:12;;;;;;;32.95;20.23;;;15.40;99.90;;;;;;5052332;28;20041;-80
2022/04/15 09:55:44;;;;;;;26.27;16.65;;;15.60;99.90;;;;;;5052576;28;20080;-79
2022/04/15 09:58:18;;;;;;;25.35;16.95;;;15.40;99.90;;;;;;5052360;28;20121;-74
2022/04/15 10:00:48;;;;;;;25.42;17.38;;;15.50;99.90;;;;;;5052588;28;20379;-79
2022/04/15 10:03:19;;;;;;;25.50;15.82;;;15.90;99.90;;;;;;5052020;28;20031;-79
2022/04/15 10:05:45;;;;;;;30.05;17.95;;;16.20;99.90;;;;;;5052233;28;20123;-79
2022/04/15 10:08:11;;;;;;;25.73;16.70;;;16.00;99.90;;;;;;5052123;28;20049;-77
2022/04/15 10:10:37;;;;;;;31.23;17.67;;;16.20;99.90;;;;;;5052238;28;20021;-79
2022/04/15 10:13:05;;;;;;;31.27;18.35;;;16.40;99.90;;;;;;5052123;28;20119;-79
2022/04/15 10:15:33;;;;;;;30.80;18.17;;;16.50;99.90;;;;;;5052344;28;20458;-73
2022/04/15 10:18:01;;;;;;;39.10;20.52;;;16.80;99.90;;;;;;5052164;28;20033;-79
2022/04/15 10:20:31;;;;;;;41.75;21.00;;;16.60;99.90;;;;;;5052071;28;20063;-79
2022/04/15 10:23:04;;;;;;;32.60;19.70;;;16.60;99.90;;;;;;5052073;28;20470;-79
2022/04/15 10:25:30;;;;;;;34.17;17.20;;;16.70;99.90;;;;;;5052099;28;20025;-77
2022/04/15 10:28:15;;;;;;;35.17;19.42;;;16.90;99.90;;;;;;5055680;28;20025;-79
2022/04/15 10:31:17;;;;;;;27.65;16.75;;;17.00;99.90;;;;;;5055330;28;20059;-79
2022/04/15 10:33:44;;;;;;;;;;;17.30;99.90;;;;;;5052774;28;20045;-78
2022/04/15 10:36:14;;;;;;;26.88;17.25;;;17.30;99.90;;;;;;5056059;28;19912;-79
2022/04/15 10:39:16;;;;;;;19.83;15.30;;;17.40;99.90;;;;;;5055368;28;20037;-74
2022/04/15 10:41:42;;;;;;;22.73;14.63;;;17.50;99.90;;;;;;4993991;28;20088;-75
2022/04/15 10:44:11;;;;;;;16.98;13.35;;;17.20;99.90;;;;;;5043099;28;20111;-77
2022/04/15 10:46:38;;;;;;;21.25;14.02;;;17.20;99.90;;;;;;5055035;28;20029;-78
2022/04/15 10:49:23;;;;;;;22.25;14.02;;;17.20;99.90;;;;;;5055344;28;20032;-78
2022/04/15 10:51:51;;;;;;;23.52;13.68;;;17.70;99.90;;;;;;5055391;28;20115;-75
2022/04/15 10:54:35;;;;;;;21.50;14.05;;;17.80;99.90;;;;;;5037414;28;20025;-76
2022/04/15 10:57:14;;;;;;;20.48;13.25;;;17.70;99.90;;;;;;5055448;28;20067;-79
2022/04/15 11:02:38;;;;;;;22.45;12.90;;;17.90;99.90;;;;;;5054917;28;20031;-78
2022/04/15 11:05:05;;;;;;;18.27;12.75;;;18.10;99.90;;;;;;5054863;28;20029;-79
2022/04/15 11:07:43;;;;;;;17.70;12.30;;;18.20;99.90;;;;;;5054832;28;20029;-78
2022/04/15 11:11:03;;;;;;;18.52;12.88;;;18.10;99.90;;;;;;5054712;28;20470;-77
2022/04/15 11:13:39;;;;;;;17.33;12.27;;;18.20;99.90;;;;;;5054888;28;20056;-76
2022/04/15 11:16:10;;;;;;;17.70;12.02;;;18.30;99.90;;;;;;5054723;28;20044;-79
2022/04/15 11:18:46;;;;;;;16.27;11.83;;;18.30;99.90;;;;;;5054668;28;20027;-79
2022/04/15 11:21:30;;;;;;;17.63;11.07;;;18.20;99.90;;;;;;5054826;28;20040;-79
2022/04/15 11:24:04;;;;;;;14.73;11.75;;;18.10;99.90;;;;;;5054759;28;20051;-73
2022/04/15 11:26:31;;;;;;;15.18;12.45;;;18.00;99.90;;;;;;5054521;28;20036;-76
2022/04/15 11:28:59;;;;;;;18.02;13.70;;;18.30;99.90;;;;;;5054281;28;20473;-79
2022/04/15 11:31:29;;;;;;;17.60;11.93;;;18.30;99.90;;;;;;5054564;28;20431;-79
2022/04/15 11:34:10;;;;;;;15.70;11.68;;;18.70;99.90;;;;;;5036789;28;20029;-78
2022/04/15 11:36:42;;;;;;;16.65;12.05;;;18.90;99.90;;;;;;5054497;28;20033;-75
2022/04/15 11:39:11;;;;;;;17.77;11.55;;;18.90;99.90;;;;;;5054398;28;20063;-77
2022/04/15 11:41:46;;;;;;;18.35;11.57;;;19.20;99.90;;;;;;5054329;28;20025;-79
2022/04/15 11:44:13;;;;;;;13.77;10.70;;;19.20;99.90;;;;;;5036103;28;20033;-79
2022/04/15 11:46:40;;;;;;;19.13;10.88;;;20.00;99.90;;;;;;5054236;28;20052;-79
2022/04/15 11:49:14;;;;;;;14.95;10.15;;;20.00;99.70;;;;;;5034457;28;20071;-77
2022/04/15 11:51:43;;;;;;;17.40;10.23;;;19.90;99.80;;;;;;5034160;28;20108;-75
2022/04/15 11:54:08;;;;;;;18.05;12.20;;;19.80;99.50;;;;;;5034224;28;20045;-76
2022/04/15 11:56:35;;;;;;;15.80;12.45;;;20.00;99.70;;;;;;5034043;28;20026;-74
2022/04/15 11:59:01;;;;;;;15.85;10.93;;;20.10;99.50;;;;;;5033873;28;20478;-79
2022/04/15 12:01:29;;;;;;;21.83;11.32;;;20.40;99.00;;;;;;5033813;28;20076;-80
2022/04/15 12:03:55;;;;;;;17.70;12.02;;;21.00;97.80;;;;;;5050330;28;20009;-80
2022/04/15 12:06:22;;;;;;;19.00;12.45;;;21.30;97.60;;;;;;5035425;28;20036;-77
2022/04/15 12:08:51;;;;;;;24.17;12.73;;;22.10;96.50;;;;;;5054075;28;20028;-77
2022/04/15 12:11:23;;;;;;;17.23;12.93;;;22.00;95.80;;;;;;5053692;28;20036;-76
2022/04/15 12:14:00;;;;;;;18.23;11.98;;;22.10;95.40;;;;;;5053425;28;20052;-81
2022/04/15 12:16:28;;;;;;;19.70;10.68;;;21.90;96.50;;;;;;5053575;28;20029;-75
2022/04/15 12:18:56;;;;;;;16.88;11.88;;;22.30;95.70;;;;;;5053782;28;20021;-78
2022/04/15 12:21:23;;;;;;;18.30;11.52;;;22.50;94.60;;;;;;5053519;28;20028;-79
2022/04/15 12:24:09;;;;;;;15.68;10.30;;;22.60;94.50;;;;;;5053722;28;20016;-79
2022/04/15 12:26:45;;;;;;;12.70;9.65;;;22.60;95.00;;;;;;5053187;28;20438;-81
2022/04/15 12:32:35;;;;;;;20.73;12.05;;;22.50;94.70;;;;;;5053385;28;20028;-78
2022/04/15 12:35:00;;;;;;;16.73;12.60;;;23.90;94.00;;;;;;5053495;28;20033;-78
2022/04/15 12:37:49;;;;;;;19.10;12.77;;;23.80;93.80;;;;;;5053228;28;20048;-80